createdAt,value
2023-04-17T07:13:06.941Z,5.78
2023-04-17T07:18:32.965Z,5.85
2023-04-17T07:23:57.969Z,5.90
2023-04-17T07:29:25.960Z,5.97
2023-04-17T07:34:50.909Z,5.95
2023-04-17T07:40:18.957Z,5.92
2023-04-17T07:45:45.943Z,6.02
2023-04-17T07:51:10.970Z,6.16
2023-04-17T07:56:35.993Z,6.17
2023-04-17T08:02:04.066Z,6.09
2023-04-17T08:07:27.924Z,6.19
2023-04-17T08:12:52.937Z,6.36
2023-04-17T08:18:21.040Z,6.52
2023-04-17T08:23:46.957Z,6.55
2023-04-17T08:29:11.140Z,6.60
2023-04-17T08:34:40.019Z,6.58
2023-04-17T08:40:03.954Z,6.66
2023-04-17T08:45:31.015Z,6.77
2023-04-17T08:51:01.973Z,6.87
2023-04-17T08:56:26.986Z,6.76
2023-04-17T09:01:51.116Z,6.83
2023-04-17T09:07:22.004Z,6.76
2023-04-17T09:12:48.968Z,6.88
2023-04-17T09:18:15.071Z,6.82
2023-04-17T09:23:43.995Z,6.94
2023-04-17T09:29:16.337Z,7.01
2023-04-17T09:34:40.023Z,7.08
2023-04-17T09:40:12.026Z,7.16
2023-04-17T09:45:42.873Z,7.39
2023-04-17T09:51:08.015Z,7.62
2023-04-17T09:56:35.987Z,7.66
2023-04-17T10:02:03.134Z,7.75
2023-04-17T10:07:28.090Z,7.92
2023-04-17T10:13:06.058Z,7.82
2023-04-17T10:18:32.056Z,7.83
2023-04-17T10:23:56.059Z,8.04
2023-04-17T10:29:25.136Z,8.26
2023-04-17T10:34:55.102Z,8.47
2023-04-17T10:40:27.204Z,8.07
2023-04-17T10:46:22.127Z,7.95
2023-04-17T10:51:52.120Z,8.00
2023-04-17T10:57:18.070Z,8.13
2023-04-17T11:02:50.152Z,8.30
2023-04-17T11:08:19.094Z,8.24
2023-04-17T11:13:44.143Z,8.25
2023-04-17T11:19:30.132Z,8.54
2023-04-17T11:25:03.182Z,8.76
2023-04-17T11:30:43.158Z,8.81
2023-04-17T11:41:35.119Z,9.27
2023-04-17T11:47:01.088Z,9.29
2023-04-17T11:52:26.072Z,9.44
2023-04-17T11:57:54.081Z,9.54
2023-04-17T12:03:27.219Z,9.81
2023-04-17T12:08:54.170Z,9.71
2023-04-17T12:14:28.062Z,9.89
2023-04-17T12:19:53.143Z,9.92
2023-04-17T12:25:17.098Z,9.93
2023-04-17T12:30:47.073Z,9.80
2023-04-17T12:36:13.212Z,10.16
2023-04-17T12:41:39.305Z,10.62
2023-04-17T12:47:08.153Z,10.22
2023-04-17T12:52:33.112Z,9.82
2023-04-17T12:57:57.117Z,9.57
2023-04-17T13:03:26.355Z,9.59
2023-04-17T13:08:50.110Z,9.37
2023-04-17T13:14:16.144Z,9.34
2023-04-17T13:19:54.142Z,9.30
2023-04-17T13:25:54.174Z,9.27
2023-04-17T13:31:18.174Z,9.29
2023-04-17T13:36:52.128Z,9.22
2023-04-17T13:42:35.094Z,9.25
2023-04-17T13:48:00.306Z,9.31
2023-04-17T13:53:24.141Z,9.38
2023-04-17T13:58:55.220Z,9.46
2023-04-17T14:04:19.345Z,9.64
2023-04-17T14:09:44.136Z,9.70
2023-04-17T14:15:19.131Z,9.79
2023-04-17T14:20:44.156Z,9.94
2023-04-17T14:26:08.165Z,10.15
2023-04-17T14:31:36.211Z,11.05
2023-04-17T14:37:00.200Z,11.72
2023-04-17T14:42:25.208Z,11.95
2023-04-17T14:47:52.222Z,12.02
2023-04-17T14:53:18.854Z,11.74
2023-04-17T14:58:44.193Z,11.45
2023-04-17T15:04:13.438Z,11.09
2023-04-17T15:09:37.167Z,10.89
2023-04-17T15:15:11.211Z,10.83
2023-04-17T15:20:39.204Z,10.75
2023-04-17T15:26:04.186Z,10.79
2023-04-17T15:31:29.269Z,10.78
2023-04-17T15:36:56.149Z,10.65
2023-04-17T15:42:21.168Z,10.67
2023-04-17T15:47:45.200Z,10.66
2023-04-17T15:53:13.411Z,10.63
2023-04-17T15:58:37.191Z,10.69
2023-04-17T16:03:55.355Z,10.73
2023-04-17T16:09:24.233Z,10.99
2023-04-17T16:14:49.193Z,11.06
2023-04-17T16:20:16.179Z,11.12
2023-04-17T16:25:43.234Z,11.08
2023-04-17T16:31:08.236Z,10.83
2023-04-17T16:36:33.489Z,10.74
2023-04-17T22:25:55.374Z,6.38
2023-04-17T22:31:22.434Z,6.33
2023-04-17T22:36:46.398Z,6.31
2023-04-17T23:21:56.431Z,6.09
2023-04-17T23:27:21.409Z,6.08
2023-04-17T23:32:48.444Z,6.06
2023-04-17T23:38:16.425Z,6.07
2023-04-17T23:43:40.415Z,6.05
2023-04-17T23:49:05.402Z,6.04
2023-04-17T23:54:32.428Z,6.01
2023-04-17T23:59:57.414Z,6.02
